createdAt,value
2019-04-20T00:01:01.536Z,4.50
2019-04-20T00:03:36.761Z,4.07
2019-04-20T00:06:01.448Z,4.70
2019-04-20T00:08:34.504Z,4.37
2019-04-20T00:11:08.081Z,4.73
2019-04-20T00:13:40.651Z,5.33
2019-04-20T00:16:02.045Z,4.37
2019-04-20T00:18:34.750Z,4.83
2019-04-20T00:21:19.697Z,5.03
2019-04-20T00:23:51.910Z,4.40
2019-04-20T00:27:01.913Z,4.30
2019-04-20T00:29:17.431Z,4.43
2019-04-20T00:31:45.828Z,4.17
2019-04-20T00:34:09.190Z,4.30
2019-04-20T00:36:30.797Z,4.30
2019-04-20T00:39:02.775Z,4.53
2019-04-20T00:41:29.743Z,4.67
2019-04-20T00:44:04.675Z,4.37
2019-04-20T00:46:39.803Z,4.13
2019-04-20T00:49:16.454Z,4.70
2019-04-20T00:51:46.624Z,4.50
2019-04-20T00:54:00.857Z,4.50
2019-04-20T00:56:30.945Z,4.30
2019-04-20T00:59:14.541Z,4.50
2019-04-20T01:01:48.755Z,4.50
2019-04-20T01:04:19.845Z,4.10
2019-04-20T01:06:58.960Z,4.47
2019-04-20T01:09:45.457Z,4.10
2019-04-20T01:12:19.279Z,4.80
2019-04-20T01:14:51.385Z,4.43
2019-04-20T01:17:14.802Z,4.40
2019-04-20T01:19:43.220Z,4.47
2019-04-20T01:22:16.225Z,4.17
2019-04-20T01:24:45.387Z,5.13
2019-04-20T01:27:29.516Z,4.27
2019-04-20T01:29:46.970Z,4.60
2019-04-20T01:32:23.308Z,4.10
2019-04-20T01:34:55.314Z,4.20
2019-04-20T01:37:26.107Z,4.63
2019-04-20T01:39:50.224Z,4.77
2019-04-20T01:42:15.014Z,4.33
2019-04-20T01:44:47.336Z,4.60
2019-04-20T01:47:14.946Z,3.50
2019-04-20T01:49:48.636Z,4.43
2019-04-20T01:52:20.065Z,3.97
2019-04-20T01:55:08.691Z,4.13
2019-04-20T01:57:33.012Z,4.00
2019-04-20T02:00:09.223Z,4.27
2019-04-20T02:02:47.736Z,3.97
2019-04-20T02:05:20.708Z,4.33
2019-04-20T02:07:49.028Z,4.27
2019-04-20T02:10:18.278Z,4.20
2019-04-20T02:12:51.379Z,3.80
2019-04-20T02:15:23.197Z,4.10
2019-04-20T02:18:03.537Z,3.87
2019-04-20T02:20:37.855Z,3.97
2019-04-20T02:23:03.166Z,4.43
2019-04-20T02:25:18.653Z,4.50
2019-04-20T02:27:53.182Z,4.00
2019-04-20T02:33:34.770Z,4.23
2019-04-20T02:39:21.498Z,4.17
2019-04-20T02:41:44.976Z,3.30
2019-04-20T02:44:14.563Z,4.33
2019-04-20T02:46:41.319Z,3.83
2019-04-20T02:49:26.332Z,3.43
2019-04-20T02:56:29.325Z,3.37
2019-04-20T02:58:47.196Z,4.10
2019-04-20T03:01:06.344Z,4.00
2019-04-20T03:03:22.562Z,4.03
2019-04-20T03:06:00.158Z,4.43
2019-04-20T03:08:28.199Z,3.67
2019-04-20T03:11:09.006Z,3.30
2019-04-20T03:13:37.003Z,3.83
2019-04-20T03:16:03.497Z,4.20
2019-04-20T03:18:37.423Z,3.90
2019-04-20T03:21:08.144Z,3.33
2019-04-20T03:23:44.434Z,3.83
2019-04-20T03:26:15.095Z,3.37
2019-04-20T03:28:54.221Z,3.63
2019-04-20T03:36:42.864Z,3.40
2019-04-20T03:39:03.965Z,3.67
2019-04-20T03:41:19.566Z,3.40
2019-04-20T03:43:41.828Z,3.87
2019-04-20T03:46:14.155Z,3.60
2019-04-20T03:48:54.829Z,4.20
2019-04-20T03:51:35.913Z,3.20
2019-04-20T03:54:19.823Z,4.23
2019-04-20T03:57:15.715Z,3.40
2019-04-20T03:59:45.766Z,3.13
2019-04-20T04:02:37.792Z,3.33
2019-04-20T04:05:04.243Z,3.40
2019-04-20T04:07:22.864Z,3.60
2019-04-20T04:10:00.805Z,3.60
2019-04-20T04:12:51.447Z,4.13
2019-04-20T04:15:20.941Z,3.60
2019-04-20T04:17:50.379Z,3.13
2019-04-20T04:20:21.431Z,3.53
2019-04-20T04:23:03.710Z,3.70
2019-04-20T04:25:29.807Z,3.63
2019-04-20T04:28:08.693Z,4.07
2019-04-20T04:30:35.323Z,4.17
2019-04-20T04:33:37.899Z,3.17
2019-04-20T04:35:34.903Z,3.63
2019-04-20T04:38:09.452Z,3.03
2019-04-20T04:40:51.483Z,3.77
2019-04-20T04:43:10.188Z,3.30
2019-04-20T04:45:26.737Z,3.17
2019-04-20T04:47:53.666Z,3.43
2019-04-20T04:50:25.206Z,3.43
2019-04-20T04:53:02.335Z,3.50
2019-04-20T04:55:34.473Z,3.83
2019-04-20T04:57:53.763Z,3.47
2019-04-20T05:00:28.200Z,2.93
2019-04-20T05:03:00.301Z,3.10
2019-04-20T05:06:07.598Z,3.53
2019-04-20T05:08:30.738Z,3.67
2019-04-20T05:10:54.130Z,3.97
2019-04-20T05:13:27.717Z,3.63
2019-04-20T05:16:10.956Z,3.10
2019-04-20T05:21:38.916Z,3.50
2019-04-20T05:24:22.629Z,3.70
2019-04-20T05:27:14.678Z,3.23
2019-04-20T05:29:25.402Z,4.37
2019-04-20T05:31:56.290Z,3.60
2019-04-20T05:34:45.282Z,3.10
2019-04-20T05:37:24.228Z,3.67
2019-04-20T05:39:45.757Z,3.50
2019-04-20T05:42:17.900Z,2.70
2019-04-20T05:44:48.626Z,3.03
2019-04-20T05:47:20.020Z,3.00
2019-04-20T05:49:40.155Z,3.83
2019-04-20T05:52:29.113Z,3.17
2019-04-20T05:54:45.641Z,3.00
2019-04-20T05:57:22.576Z,4.43
2019-04-20T05:59:56.217Z,3.23
2019-04-20T06:02:15.955Z,3.57
2019-04-20T06:05:02.275Z,3.10
2019-04-20T06:07:21.123Z,3.00
2019-04-20T06:09:54.247Z,3.33
2019-04-20T06:12:23.660Z,3.27
2019-04-20T06:15:12.769Z,3.40
2019-04-20T06:18:06.294Z,3.30
2019-04-20T06:20:46.740Z,3.60
2019-04-20T06:23:33.562Z,3.67
2019-04-20T06:26:12.843Z,3.50
2019-04-20T06:28:26.782Z,3.63
2019-04-20T06:30:52.568Z,3.77
2019-04-20T06:34:27.993Z,3.03
2019-04-20T06:39:27.503Z,3.60
2019-04-20T06:41:57.359Z,4.00
2019-04-20T06:44:14.686Z,3.63
2019-04-20T06:46:45.593Z,3.27
2019-04-20T06:49:16.905Z,3.60
2019-04-20T06:52:14.252Z,3.20
2019-04-20T06:55:03.065Z,3.13
2019-04-20T06:57:35.659Z,3.57
2019-04-20T07:00:07.471Z,4.17
2019-04-20T07:02:35.705Z,3.23
2019-04-20T07:05:08.571Z,3.90
2019-04-20T07:07:35.529Z,3.37
2019-04-20T07:10:16.447Z,3.20
2019-04-20T07:12:33.132Z,3.10
2019-04-20T07:14:55.702Z,2.63
2019-04-20T07:17:49.098Z,2.67
2019-04-20T07:20:27.391Z,2.53
2019-04-20T07:23:11.929Z,3.23
2019-04-20T07:25:37.451Z,2.97
2019-04-20T07:28:09.674Z,2.80
2019-04-20T07:30:35.723Z,2.67
2019-04-20T07:33:04.380Z,2.57
2019-04-20T07:35:37.264Z,2.67
2019-04-20T07:38:24.303Z,2.93
2019-04-20T07:40:36.042Z,2.97
2019-04-20T07:43:05.788Z,2.37
2019-04-20T07:45:48.796Z,2.40
2019-04-20T07:48:13.586Z,3.20
2019-04-20T07:50:29.129Z,2.83
2019-04-20T07:53:07.618Z,2.77
2019-04-20T07:55:49.441Z,2.90
2019-04-20T07:58:01.376Z,2.33
2019-04-20T08:00:48.570Z,2.60
2019-04-20T08:03:43.931Z,2.80
2019-04-20T08:06:11.562Z,2.80
2019-04-20T08:08:53.111Z,2.77
2019-04-20T08:11:21.213Z,3.00
2019-04-20T08:13:56.947Z,3.17
2019-04-20T08:16:33.109Z,3.40
2019-04-20T08:18:55.086Z,2.60
2019-04-20T08:21:32.808Z,3.20
2019-04-20T08:23:58.158Z,2.90
2019-04-20T08:26:16.216Z,2.93
2019-04-20T08:28:55.246Z,3.00
2019-04-20T08:31:55.799Z,3.00
2019-04-20T08:34:36.917Z,3.17
2019-04-20T08:37:01.385Z,3.03
2019-04-20T08:39:44.806Z,2.87
2019-04-20T08:42:07.480Z,3.10
2019-04-20T08:44:56.983Z,2.93
2019-04-20T08:47:13.215Z,2.97
2019-04-20T08:49:57.391Z,2.87
2019-04-20T08:54:34.470Z,3.20
2019-04-20T08:56:52.235Z,2.90
2019-04-20T08:59:17.253Z,3.07
2019-04-20T09:01:46.778Z,3.13
2019-04-20T09:04:20.768Z,2.70
2019-04-20T09:06:57.199Z,3.40
2019-04-20T09:09:45.497Z,2.83
2019-04-20T09:12:11.861Z,2.83
2019-04-20T09:14:21.485Z,3.10
2019-04-20T09:17:04.865Z,2.73
2019-04-20T09:19:36.732Z,2.70
2019-04-20T09:22:38.814Z,3.03
2019-04-20T09:25:27.921Z,2.87
2019-04-20T09:27:40.584Z,3.10
2019-04-20T09:30:21.378Z,3.30
2019-04-20T09:32:56.656Z,2.87
2019-04-20T09:35:25.453Z,3.00
2019-04-20T09:37:59.910Z,2.87
2019-04-20T09:40:44.933Z,3.10
2019-04-20T09:43:13.977Z,2.83
2019-04-20T09:45:50.411Z,3.07
2019-04-20T09:48:25.242Z,3.30
2019-04-20T09:51:02.365Z,2.93
2019-04-20T09:53:29.434Z,4.23
2019-04-20T09:56:06.224Z,3.40
2019-04-20T09:58:32.060Z,2.67
2019-04-20T10:01:02.192Z,3.43
2019-04-20T10:03:18.866Z,3.03
2019-04-20T10:05:47.733Z,3.27
2019-04-20T10:08:17.502Z,3.63
2019-04-20T10:10:48.703Z,2.73
2019-04-20T10:13:17.442Z,3.20
2019-04-20T10:15:45.992Z,2.93
2019-04-20T10:18:14.505Z,3.40
2019-04-20T10:20:44.070Z,3.53
2019-04-20T10:23:14.332Z,3.57
2019-04-20T10:25:42.922Z,3.83
2019-04-20T10:28:11.863Z,3.50
2019-04-20T10:30:40.850Z,3.60
2019-04-20T10:33:09.934Z,4.37
2019-04-20T10:35:39.461Z,4.00
2019-04-20T10:38:13.770Z,4.03
2019-04-20T10:40:53.025Z,3.60
2019-04-20T10:43:14.209Z,3.93
2019-04-20T10:45:42.928Z,4.97
2019-04-20T10:48:13.127Z,3.87
2019-04-20T10:50:43.022Z,4.00
2019-04-20T10:53:12.090Z,3.87
2019-04-20T10:55:45.168Z,4.53
2019-04-20T10:58:13.815Z,4.00
2019-04-20T11:00:46.064Z,3.50
2019-04-20T11:06:32.681Z,3.90
2019-04-20T11:09:40.478Z,3.77
2019-04-20T11:12:32.549Z,3.10
2019-04-20T11:15:10.322Z,3.20
2019-04-20T11:18:05.616Z,3.87
2019-04-20T11:20:35.265Z,4.20
2019-04-20T11:23:10.795Z,3.97
2019-04-20T11:25:42.557Z,3.40
2019-04-20T11:28:12.258Z,3.40
2019-04-20T11:30:41.640Z,3.20
2019-04-20T11:33:24.442Z,3.70
2019-04-20T11:35:54.676Z,3.13
2019-04-20T11:38:47.049Z,3.30
2019-04-20T11:41:26.067Z,3.37
2019-04-20T11:44:02.038Z,3.93
2019-04-20T11:46:40.716Z,4.07
2019-04-20T11:49:11.227Z,3.83
2019-04-20T11:51:39.790Z,3.63
2019-04-20T11:54:08.356Z,2.90
2019-04-20T11:56:43.528Z,3.30
2019-04-20T11:59:13.121Z,3.07
2019-04-20T12:02:08.324Z,2.90
2019-04-20T12:04:49.380Z,3.60
2019-04-20T12:07:13.394Z,3.43
2019-04-20T12:09:42.319Z,3.10
2019-04-20T12:12:29.273Z,3.17
2019-04-20T12:14:48.720Z,3.10
2019-04-20T12:17:17.671Z,2.80
2019-04-20T12:19:46.228Z,3.20
2019-04-20T12:22:15.931Z,2.93
2019-04-20T12:24:44.708Z,3.30
2019-04-20T12:27:14.661Z,3.43
2019-04-20T12:29:43.641Z,3.03
2019-04-20T12:32:12.912Z,3.20
2019-04-20T12:34:43.441Z,3.27
2019-04-20T12:37:13.190Z,3.37
2019-04-20T12:39:42.852Z,3.47
2019-04-20T12:42:14.715Z,3.13
2019-04-20T12:44:45.913Z,3.30
2019-04-20T12:47:15.588Z,3.33
2019-04-20T12:49:45.477Z,3.10
2019-04-20T12:52:14.493Z,2.73
2019-04-20T12:54:45.130Z,3.43
2019-04-20T12:57:14.521Z,2.57
2019-04-20T12:59:45.547Z,2.73
2019-04-20T13:02:13.499Z,2.67
2019-04-20T13:04:42.040Z,2.73
2019-04-20T13:07:10.539Z,2.70
2019-04-20T13:09:50.673Z,2.47
2019-04-20T13:12:30.350Z,2.60
2019-04-20T13:15:28.794Z,2.60
2019-04-20T13:17:59.031Z,2.53
2019-04-20T13:20:28.040Z,2.90
2019-04-20T13:22:57.192Z,2.90
2019-04-20T13:25:28.871Z,2.87
2019-04-20T13:27:58.867Z,2.63
2019-04-20T13:30:33.041Z,2.70
2019-04-20T13:33:25.143Z,2.20
2019-04-20T13:36:04.084Z,2.40
2019-04-20T13:38:34.147Z,3.00
2019-04-20T13:41:13.829Z,2.97
2019-04-20T13:43:42.161Z,2.40
2019-04-20T13:46:11.216Z,2.73
2019-04-20T13:48:44.838Z,2.43
2019-04-20T13:51:14.693Z,2.53
2019-04-20T13:53:43.421Z,2.70
2019-04-20T13:56:14.024Z,2.80
2019-04-20T13:59:19.913Z,2.97
2019-04-20T14:02:08.938Z,3.00
2019-04-20T14:05:03.060Z,2.43
2019-04-20T14:07:39.590Z,2.50
2019-04-20T14:10:11.473Z,2.70
2019-04-20T14:12:58.698Z,3.00
2019-04-20T14:15:49.151Z,3.10
2019-04-20T14:18:24.952Z,3.03
2019-04-20T14:20:56.360Z,2.60
2019-04-20T14:23:27.058Z,2.63
2019-04-20T14:26:03.101Z,3.13
2019-04-20T14:28:38.772Z,2.73
2019-04-20T14:31:25.782Z,2.63
2019-04-20T14:37:08.894Z,2.50
2019-04-20T14:39:38.381Z,2.00
2019-04-20T14:42:23.322Z,2.03
2019-04-20T14:44:41.770Z,2.13
2019-04-20T14:47:11.872Z,2.30
2019-04-20T14:49:40.904Z,2.30
2019-04-20T14:52:09.737Z,3.00
2019-04-20T14:54:39.376Z,2.17
2019-04-20T14:57:08.050Z,2.33
2019-04-20T14:59:51.699Z,2.30
2019-04-20T15:02:22.313Z,2.13
2019-04-20T15:04:50.744Z,2.20
2019-04-20T15:07:20.469Z,2.13
2019-04-20T15:09:51.162Z,2.13
2019-04-20T15:12:21.283Z,2.50
2019-04-20T15:14:50.416Z,2.23
2019-04-20T15:17:33.683Z,2.33
2019-04-20T15:20:09.800Z,2.73
2019-04-20T15:22:43.135Z,2.00
2019-04-20T15:25:13.619Z,2.40
2019-04-20T15:27:46.156Z,2.30
2019-04-20T15:30:14.525Z,2.47
2019-04-20T15:32:43.426Z,2.50
2019-04-20T15:35:13.172Z,2.33
2019-04-20T15:37:42.580Z,2.70
2019-04-20T15:40:12.970Z,2.57
2019-04-20T15:42:52.515Z,2.40
2019-04-20T15:45:13.474Z,2.70
2019-04-20T15:47:41.992Z,3.03
2019-04-20T15:50:11.770Z,2.40
2019-04-20T15:52:45.653Z,2.63
2019-04-20T15:55:19.550Z,2.40
2019-04-20T15:57:42.546Z,2.67
2019-04-20T16:00:12.460Z,2.10
2019-04-20T16:02:54.612Z,2.00
2019-04-20T16:05:49.220Z,2.57
2019-04-20T16:08:44.095Z,2.30
2019-04-20T16:11:13.325Z,2.50
2019-04-20T16:13:47.578Z,2.13
2019-04-20T16:16:14.010Z,2.57
2019-04-20T16:18:43.227Z,2.57
2019-04-20T16:21:19.333Z,2.67
2019-04-20T16:24:08.866Z,3.17
2019-04-20T16:26:57.757Z,2.30
2019-04-20T16:29:26.732Z,2.50
2019-04-20T16:31:56.277Z,2.63
2019-04-20T16:34:25.384Z,2.30
2019-04-20T16:36:56.321Z,2.23
2019-04-20T16:39:24.683Z,2.50
2019-04-20T16:41:53.981Z,2.47
2019-04-20T16:44:23.136Z,2.77
2019-04-20T16:46:52.144Z,2.40
2019-04-20T16:49:21.285Z,3.27
2019-04-20T16:51:49.951Z,2.40
2019-04-20T16:54:19.505Z,2.27
2019-04-20T16:56:50.734Z,2.17
2019-04-20T16:59:20.848Z,2.80
2019-04-20T17:01:50.595Z,2.53
2019-04-20T17:04:22.644Z,2.60
2019-04-20T17:07:10.167Z,2.40
2019-04-20T17:09:39.865Z,2.60
2019-04-20T17:12:09.881Z,2.73
2019-04-20T17:14:39.786Z,2.67
2019-04-20T17:17:09.465Z,2.50
2019-04-20T17:19:38.078Z,2.70
2019-04-20T17:22:07.515Z,3.13
2019-04-20T17:24:37.594Z,2.50
2019-04-20T17:27:24.181Z,2.73
2019-04-20T17:30:19.522Z,2.50
2019-04-20T17:32:47.517Z,2.50
2019-04-20T17:35:28.651Z,2.50
2019-04-20T17:37:49.607Z,2.50
2019-04-20T17:40:33.843Z,2.90
2019-04-20T17:42:56.376Z,2.83
2019-04-20T17:45:28.563Z,2.93
2019-04-20T17:48:07.263Z,2.30
2019-04-20T17:50:37.451Z,2.90
2019-04-20T17:53:03.770Z,2.70
2019-04-20T17:55:37.024Z,2.93
2019-04-20T17:57:59.404Z,3.33
2019-04-20T18:00:45.275Z,4.30
2019-04-20T18:03:41.244Z,4.37
2019-04-20T18:06:03.282Z,4.13
2019-04-20T18:08:30.018Z,3.67
2019-04-20T18:10:57.006Z,2.93
2019-04-20T18:13:22.219Z,3.73
2019-04-20T18:16:17.059Z,3.33
2019-04-20T18:19:01.937Z,3.43
2019-04-20T18:21:28.768Z,3.67
2019-04-20T18:23:58.236Z,3.70
2019-04-20T18:26:47.938Z,4.10
2019-04-20T18:29:15.036Z,4.27
2019-04-20T18:31:47.279Z,3.90
2019-04-20T18:34:24.024Z,4.20
2019-04-20T18:36:51.589Z,4.73
2019-04-20T18:39:29.011Z,4.27
2019-04-20T18:41:55.502Z,3.80
2019-04-20T18:44:27.942Z,5.50
2019-04-20T18:47:10.642Z,4.13
2019-04-20T18:49:35.626Z,4.40
2019-04-20T18:51:53.691Z,4.60
2019-04-20T18:54:28.144Z,5.30
2019-04-20T18:56:54.823Z,4.93
2019-04-20T18:59:30.248Z,6.10
2019-04-20T19:01:55.001Z,5.97
2019-04-20T19:04:23.814Z,4.97
2019-04-20T19:06:52.292Z,3.20
2019-04-20T19:09:26.334Z,3.40
2019-04-20T19:11:59.986Z,2.80
2019-04-20T19:14:49.481Z,3.20
2019-04-20T19:18:04.235Z,3.23
2019-04-20T19:20:26.913Z,3.00
2019-04-20T19:22:55.798Z,3.00
2019-04-20T19:25:30.197Z,2.47
2019-04-20T19:27:57.496Z,3.70
2019-04-20T19:30:35.212Z,2.70
2019-04-20T19:33:17.182Z,2.80
2019-04-20T19:35:40.586Z,2.70
2019-04-20T19:38:09.859Z,3.43
2019-04-20T19:40:45.683Z,3.67
2019-04-20T19:43:18.188Z,2.90
2019-04-20T19:46:07.363Z,2.63
2019-04-20T19:48:22.372Z,3.10
2019-04-20T19:51:15.810Z,3.30
2019-04-20T19:53:36.689Z,2.80
2019-04-20T19:56:01.207Z,2.80
2019-04-20T19:58:34.516Z,2.67
2019-04-20T20:00:55.921Z,2.63
2019-04-20T20:03:25.920Z,2.47
2019-04-20T20:05:57.507Z,2.77
2019-04-20T20:08:29.953Z,2.60
2019-04-20T20:11:01.155Z,2.73
2019-04-20T20:13:36.154Z,2.83
2019-04-20T20:16:06.021Z,2.83
2019-04-20T20:18:46.630Z,3.40
2019-04-20T20:21:17.816Z,3.20
2019-04-20T20:23:30.442Z,3.30
2019-04-20T20:26:02.445Z,3.67
2019-04-20T20:28:40.366Z,3.37
2019-04-20T20:31:12.353Z,3.83
2019-04-20T20:33:43.829Z,3.13
2019-04-20T20:36:09.515Z,4.20
2019-04-20T20:38:38.912Z,3.37
2019-04-20T20:41:14.119Z,3.93
2019-04-20T20:43:47.446Z,3.70
2019-04-20T20:46:18.500Z,3.43
2019-04-20T20:49:00.596Z,4.43
2019-04-20T20:51:23.254Z,4.40
2019-04-20T20:53:49.792Z,4.13
2019-04-20T20:56:17.722Z,4.80
2019-04-20T20:58:51.076Z,4.60
2019-04-20T21:01:12.896Z,4.90
2019-04-20T21:03:42.045Z,4.10
2019-04-20T21:06:07.533Z,4.73
2019-04-20T21:08:42.839Z,4.80
2019-04-20T21:11:13.143Z,5.23
2019-04-20T21:13:40.122Z,5.40
2019-04-20T21:16:16.636Z,4.83
2019-04-20T21:18:54.697Z,3.80
2019-04-20T21:21:21.867Z,4.30
2019-04-20T21:23:48.056Z,3.70
2019-04-20T21:26:21.653Z,3.13
2019-04-20T21:28:40.513Z,3.93
2019-04-20T21:31:16.374Z,3.10
2019-04-20T21:33:42.670Z,3.50
2019-04-20T21:36:13.424Z,3.70
2019-04-20T21:38:44.713Z,3.50
2019-04-20T21:41:16.842Z,3.10
2019-04-20T21:43:45.015Z,2.80
2019-04-20T21:46:14.612Z,3.30
2019-04-20T21:48:55.887Z,3.20
2019-04-20T21:51:24.379Z,3.67
2019-04-20T21:53:44.316Z,3.53
2019-04-20T21:56:13.224Z,3.60
2019-04-20T21:58:49.561Z,3.70
2019-04-20T22:01:22.230Z,4.00
2019-04-20T22:03:44.736Z,3.73
2019-04-20T22:06:14.088Z,3.90
2019-04-20T22:08:45.991Z,4.03
2019-04-20T22:11:13.939Z,4.10
2019-04-20T22:13:44.629Z,3.80
2019-04-20T22:16:14.637Z,4.10
2019-04-20T22:18:54.107Z,4.13
2019-04-20T22:21:22.777Z,4.10
2019-04-20T22:24:00.568Z,4.67
2019-04-20T22:26:25.374Z,4.10
2019-04-20T22:28:44.684Z,4.60
2019-04-20T22:31:14.046Z,3.80
2019-04-20T22:33:44.900Z,3.43
2019-04-20T22:36:14.473Z,3.40
2019-04-20T22:39:07.421Z,2.97
2019-04-20T22:41:40.666Z,4.07
2019-04-20T22:44:15.134Z,3.17
2019-04-20T22:46:42.190Z,3.60
2019-04-20T22:49:30.302Z,3.50
2019-04-20T22:51:52.017Z,3.63
2019-04-20T22:54:27.993Z,3.50
2019-04-20T22:56:56.227Z,3.03
2019-04-20T22:59:16.507Z,3.03
2019-04-20T23:01:48.475Z,3.97
2019-04-20T23:04:12.905Z,4.23
2019-04-20T23:06:47.922Z,4.00
2019-04-20T23:09:14.867Z,3.87
2019-04-20T23:11:43.420Z,4.00
2019-04-20T23:14:11.855Z,3.47
2019-04-20T23:16:44.064Z,3.57
2019-04-20T23:19:11.963Z,3.37
2019-04-20T23:21:48.615Z,3.70
2019-04-20T23:24:13.294Z,3.70
2019-04-20T23:26:44.276Z,3.70
2019-04-20T23:29:13.238Z,3.90
2019-04-20T23:31:50.555Z,3.73
2019-04-20T23:34:16.133Z,3.20
2019-04-20T23:36:46.859Z,3.77
2019-04-20T23:39:14.769Z,3.10
2019-04-20T23:41:53.721Z,3.80
2019-04-20T23:44:33.527Z,4.37
2019-04-20T23:47:20.166Z,5.23
2019-04-20T23:50:17.896Z,3.87
2019-04-20T23:52:59.787Z,3.83
2019-04-20T23:55:09.742Z,4.47
2019-04-20T23:57:37.880Z,4.37
